Botsford, Connecticut
Current Conditions -  °F | °C
As of 1:35 AM on Tuesday 21 Oct 2014 (Local Time) from KOXC Reporting Station
Overcast Overcast  
Wind Chill: 52°   Ceiling: 4600
Heat Index: 52°   Visibility: 10mi
Dew Point: 43°   Wind: 5mph
Humidity: 71%   Direction: 190°S
Pressure: 29.96"   Gusts: NA
Location:  41.37°N, 73.26°W
Report Text: KOXC 210535Z 19004KT 10SM OVC046 11/06 A2996 RMK AO1
Loading
Personal Weather Stations






























Interactive Weather Map
Tropical Storm Tracking
New forecast layout! Learn more

10-Day Weather Forecast

Advertisements
Track Severe Weather on mobile